Nearby METAR Reports

EGNX - East Midlands, United Kingdom
Distance: S 18mi, 28km
Updated: 23/05/2019 07:50
Clear
Clear
 Wind from WSW
Wind: WSW 6 mph , 9 km/h
Temperature: 12°C
Dew Point: 8°C
Humidity: 77%
Barometer: 1017 hPa
Summary: Clear
Visibility: greater than 7 miles , 10 km
2019/05/23 06:50 EGNX 230650Z 25005KT CAVOK 12/08 Q1017
EGCN - Doncaster Sheffi, United Kingdom
Distance: NNE 31mi, 50km
Updated: 23/05/2019 07:50
Clear
Clear
 Wind from SW
Wind: SW 7 mph , 11 km/h
Temperature: 12°C
Dew Point: 8°C
Humidity: 77%
Barometer: 1017 hPa
Summary: Clear
Visibility: greater than 7 miles , 10 km
2019/05/23 06:50 EGCN 230650Z 22006KT CAVOK 12/08 Q1017
EGYE - Barkston Heath R, United Kingdom
Distance: ESE 31mi, 50km
Updated: 22/05/2019 13:50
NOT Current
Partly cloudy
Partly cloudy
 Wind from WSW
Wind: WSW 12 mph , 19 km/h
Barometer: 1018 hPa
Clouds: Partly cloudy
Cloud details: Few Clouds 1158 m
Partly cloudy 7315 m
2019/05/22 12:50 EGYE 221250Z 25010KT FEW038 SCT240 ///// Q1018 BLU
 
EGXW - Waddington Raf, United Kingdom
Distance: ENE 33mi, 53km
Updated: 23/05/2019 07:50
Clear
Clear
 Wind from WSW
Wind: WSW 7 mph , 11 km/h
Temperature: 12°C
Dew Point: 7°C
Humidity: 72%
Barometer: 1016 hPa
Summary: Clear
Visibility: greater than 7 miles , 10 km
2019/05/23 06:50 EGXW 230650Z 24006KT CAVOK 12/07 Q1016 BLU NOSIG
EGYD - Cranwell Raf, United Kingdom
Distance: E 33mi, 53km
Updated: 23/05/2019 07:50
Clear
Clear
 Wind from WSW
Wind: WSW 9 mph , 15 km/h
Temperature: 12°C
Dew Point: 9°C
Humidity: 82%
Barometer: 1017 hPa
Summary: Clear
Visibility: greater than 7 miles , 10 km
2019/05/23 06:50 EGYD 230650Z 25008KT CAVOK 12/09 Q1017 BLU NOSIG
EGXP - Scampton Raf, United Kingdom
Distance: ENE 35mi, 56km
Updated: 23/05/2019 07:50
Clear
Clear
 Wind from WSW
Wind: WSW 6 mph , 9 km/h
Temperature: 12°C
Dew Point: 9°C
Humidity: 82%
Barometer: 1016 hPa
Summary: Clear
Visibility: greater than 7 miles , 10 km
2019/05/23 06:50 EGXP 230650Z 25005KT CAVOK 12/09 Q1016 BLU
 
EGCC - Manchester Intl, United Kingdom
Distance: WNW 45mi, 72km
Updated: 23/05/2019 07:50
Clear
Clear
 Wind from varies
Wind: varies 2 mph , 4 km/h
Temperature: 10°C
Dew Point: 8°C
Humidity: 88%
Barometer: 1017 hPa
Clouds: Clear
Visibility: 6 miles , 10 km
2019/05/23 06:50 EGCC 230650Z AUTO VRB02KT 9999 NCD 10/08 Q1017
EGBB - Birmingham Airpo, United Kingdom
Distance: SSW 46mi, 74km
Updated: 23/05/2019 07:50
Clear
Clear
 Wind from varies
Wind: varies 2 mph , 4 km/h
Temperature: 14°C
Dew Point: 5°C
Humidity: 55%
Barometer: 1017 hPa
Summary: Clear
Visibility: greater than 7 miles , 10 km
2019/05/23 06:50 EGBB 230650Z VRB02KT CAVOK 14/05 Q1017
EGXC - Coningsby Raf, United Kingdom
Distance: E 47mi, 75km
Updated: 23/05/2019 07:50
Clear
Clear
 Wind from SW
Wind: SW 3 mph , 6 km/h
Temperature: 11°C
Dew Point: 8°C
Humidity: 82%
Barometer: 1017 hPa
Summary: Clear
Visibility: greater than 7 miles , 10 km
2019/05/23 06:50 EGXC 230650Z 23003KT CAVOK 11/08 Q1017 BLU NOSIG
 
EGXT - Wittering Raf, United Kingdom
Distance: SE 47mi, 75km
Updated: 23/05/2019 07:50
Clear
Clear
 Wind from W
Wind: W 6 mph , 9 km/h
Temperature: 13°C
Dew Point: 9°C
Humidity: 77%
Barometer: 1016 hPa
Summary: Clear
Visibility: greater than 7 miles , 10 km
2019/05/23 06:50 EGXT 230650Z 27005KT CAVOK 13/09 Q1016 BLU
EGNJ - Humberside, United Kingdom
Distance: NE 52mi, 83km
Updated: 23/05/2019 07:50
Few Clouds
Few Clouds
 Wind from SW
Wind: SW 8 mph , 13 km/h
Temperature: 12°C
Dew Point: 8°C
Humidity: 77%
Barometer: 1016 hPa
Clouds: Few Clouds
Visibility: 6 miles , 10 km
Cloud details: Few Clouds 1372 m
2019/05/23 06:50 EGNJ 230650Z 23007KT 9999 FEW045 12/08 Q1016
EGWC - Cosford Raf, United Kingdom
Distance: SW 52mi, 83km
Updated: 22/05/2019 15:50
NOT Current
Partly cloudy
Partly cloudy
 Wind from W
Wind: W 9 mph , 15 km/h
Temperature: 19°C
Dew Point: 4°C
Humidity: 37%
Barometer: 1018 hPa
Clouds: Partly cloudy
Visibility: 6 miles , 10 km
Cloud details: Partly cloudy 1372 m
2019/05/22 14:50 EGWC 221450Z 28008KT 9999 SCT045 19/04 Q1018 BLU
 
EGNM - Leeds And Bradfo, United Kingdom
Distance: NNW 57mi, 91km
Updated: 23/05/2019 07:50
Clear
Clear
 Wind from WSW
Wind: WSW 5 mph , 7 km/h
Temperature: 10°C
Wind Chill: 9°C
Dew Point: 7°C
Humidity: 82%
Barometer: 1016 hPa
Summary: Clear
Visibility: greater than 7 miles , 10 km
2019/05/23 06:50 EGNM 230650Z 24004KT 190V290 CAVOK 10/07 Q1016
EGOS - Shawbury Raf, United Kingdom
Distance: WSW 60mi, 97km
Updated: 23/05/2019 07:50
Clear
Clear
 Wind from SSW
Wind: SSW 3 mph , 6 km/h
Temperature: 11°C
Dew Point: 6°C
Humidity: 72%
Barometer: 1017 hPa
Summary: Clear
Visibility: greater than 7 miles , 10 km
2019/05/23 06:50 EGOS 230650Z 21003KT CAVOK 11/06 Q1017 BLU NOSIG
EGYH - Holbeach (aut), United Kingdom
Distance: ESE 62mi, 99km
Updated: 22/05/2019 15:50
NOT Current
Clear
Clear
 Wind from SW
Wind: SW 15 mph , 24 km/h
Temperature: 18°C
Dew Point: 8°C
Humidity: 52%
Barometer: 1018 hPa
Summary: Clear
Visibility: greater than 7 miles , 10 km
2019/05/22 14:50 EGYH 221450Z 23013KT CAVOK 18/08 Q1018 BLU
 
EGXV - Leconfield (aut), United Kingdom
Distance: NNE 65mi, 105km
Updated: 23/05/2019 07:50
Mostly cloudy
Mostly cloudy
 Wind from WSW
Wind: WSW 7 mph , 11 km/h
Temperature: 11°C
Dew Point: 7°C
Humidity: 77%
Barometer: 1016 hPa
Clouds: Mostly cloudy
Visibility: 6 miles , 10 km
Cloud details: Few Clouds 2134 m
Mostly cloudy 3048 m
2019/05/23 06:50 EGXV 230650Z AUTO 24006KT 9999 FEW070/// BKN100/// 11/07 Q1016
EGXS - Donna Nook Raf, United Kingdom
Distance: ENE 66mi, 106km
Updated: 23/05/2019 07:50
Clear
Clear
 Wind from SW
Wind: SW 8 mph , 13 km/h
Temperature: 12°C
Dew Point: 7°C
Humidity: 72%
Barometer: 1016 hPa
Clouds: Clear
Visibility: 6 miles , 10 km
2019/05/23 06:50 EGXS 230650Z AUTO 23007KT 9999 // NCD 12/07 Q1016
EGGP - Liverpool Airpor, United Kingdom
Distance: WNW 67mi, 107km
Updated: 23/05/2019 07:50
Clear
Clear
 Wind from varies
Wind: varies 2 mph , 4 km/h
Temperature: 11°C
Dew Point: 8°C
Humidity: 82%
Barometer: 1017 hPa
Summary: Clear
Visibility: greater than 7 miles , 10 km
2019/05/23 06:50 EGGP 230650Z VRB02KT CAVOK 11/08 Q1017
 
EGXU - Linton-On-Ouse R, United Kingdom
Distance: N 68mi, 109km
Updated: 23/05/2019 07:50
Mostly cloudy
Mostly cloudy
 Wind from WSW
Wind: WSW 7 mph , 11 km/h
Temperature: 11°C
Dew Point: 7°C
Humidity: 77%
Barometer: 1016 hPa
Clouds: Mostly cloudy
Visibility: 6 miles , 10 km
Cloud details: Few Clouds 488 m
Partly cloudy 2438 m
Mostly cloudy 3353 m
2019/05/23 06:50 EGXU 230650Z 24006KT 9999 FEW016 SCT080 BKN110 11/07 Q1016 BLU NOSIG
EGNR - Hawarden (aut), United Kingdom
Distance: W 70mi, 112km
Updated: 23/05/2019 07:50
Clear
Clear
 Wind from varies
Wind: varies 2 mph , 4 km/h
Temperature: 11°C
Dew Point: 7°C
Humidity: 77%
Barometer: 1017 hPa
Summary: Clear
Visibility: greater than 7 miles , 10 km
2019/05/23 06:50 EGNR 230650Z VRB02KT CAVOK 11/07 Q1017